^^
Station Historical Data
 
Daily Summary for April 22, 2018 Units:  English    Metric   Both
« Previous Day
Next Day »
Daily Weekly Monthly Yearly Custom
  Current: High: Low: Average:
Temperature: 54.0 °F TemperatureF °F 23.7 °F 29.8 °F
Dew Point: 30.8 °F DewpointF °F 22.1 °F 24.1 °F
Humidity: 41% Humidity% 40% 81%
Wind Speed: 1.2mph WindSpeedMPHmph 0.0mph 0.1mph
Wind Gust: 1.2mph WindSpeedGustMPHmph - -
WindSE - - ESE
Pressure: 30.27 in PressureIn in 30.19 in -
Precipitation: 0.00 in      
Historical Graphs
 
 
Tabular Data for April 22, 2018
Time Temperature Dew Point Pressure Wind Wind Speed Wind Gust Humidity Rainfall Rate (Hourly) solar Conditions
TemperatureF °F DewpointF °F PressureIn in Calm     Humidity% HourlyPrecipIn in SolarRadiationWatts/m^2 W/m2 Conditions
00:02 31.6 °F 23.3 °F 30.20 in Calm     71% 0.00 in 0.0 W/m2 CLR
00:07 31.3 °F 22.6 °F 30.20 in Calm     70% 0.00 in 0.0 W/m2 CLR
00:12 31.3 °F 22.6 °F 30.20 in Calm     70% 0.00 in 0.0 W/m2 CLR
00:17 31.3 °F 22.6 °F 30.20 in Calm     70% 0.00 in 0.0 W/m2 CLR
00:22 31.3 °F 22.6 °F 30.19 in Calm     70% 0.00 in 0.0 W/m2 CLR
00:27 30.0 °F 22.7 °F 30.19 in Calm     74% 0.00 in 0.0 W/m2 CLR
00:32 30.0 °F 22.4 °F 30.19 in Calm     73% 0.00 in 0.0 W/m2 CLR
00:37 29.5 °F 22.8 °F 30.19 in Calm     76% 0.00 in 0.0 W/m2 CLR
00:42 29.1 °F 23.1 °F 30.19 in Calm     78% 0.00 in 0.0 W/m2 CLR
00:47 29.1 °F 23.4 °F 30.19 in Calm     79% 0.00 in 0.0 W/m2 CLR
00:52 29.1 °F 23.1 °F 30.19 in Calm     78% 0.00 in 0.0 W/m2 CLR
00:57 29.1 °F 23.1 °F 30.19 in Calm     78% 0.00 in 0.0 W/m2 CLR
01:02 28.8 °F 23.1 °F 30.19 in Calm     79% 0.00 in 0.0 W/m2 CLR
01:07 28.8 °F 23.7 °F 30.19 in Calm     81% 0.00 in 0.0 W/m2 CLR
01:12 28.8 °F 23.7 °F 30.19 in Calm     81% 0.00 in 0.0 W/m2 CLR
01:17 28.6 °F 23.5 °F 30.21 in Calm     81% 0.00 in 0.0 W/m2 CLR
01:22 27.9 °F 22.8 °F 30.19 in Calm     81% 0.00 in 0.0 W/m2 CLR
01:27 27.9 °F 22.8 °F 30.19 in Calm     81% 0.00 in 0.0 W/m2 CLR
01:32 27.9 °F 22.8 °F 30.20 in Calm     81% 0.00 in 0.0 W/m2 CLR
01:37 27.9 °F 22.2 °F 30.20 in Calm     79% 0.00 in 0.0 W/m2 CLR
01:42 27.3 °F 22.8 °F 30.21 in Calm     83% 0.00 in 0.0 W/m2 CLR
01:47 27.3 °F 23.4 °F 30.20 in Calm     85% 0.00 in 0.0 W/m2 CLR
01:52 27.0 °F 23.1 °F 30.21 in Calm     85% 0.00 in 0.0 W/m2 CLR
01:57 26.8 °F 23.2 °F 30.20 in Calm     86% 0.00 in 0.0 W/m2 CLR
02:02 26.6 °F 23.0 °F 30.20 in Calm     86% 0.00 in 0.0 W/m2 CLR
02:07 26.2 °F 22.6 °F 30.21 in Calm     86% 0.00 in 0.0 W/m2 CLR
02:12 26.2 °F 23.2 °F 30.20 in Calm     88% 0.00 in 0.0 W/m2 CLR
02:17 26.2 °F 22.6 °F 30.20 in Calm     86% 0.00 in 0.0 W/m2 CLR
02:22 26.2 °F 22.6 °F 30.20 in Calm     86% 0.00 in 0.0 W/m2 CLR
02:27 26.2 °F 22.6 °F 30.20 in Calm     86% 0.00 in 0.0 W/m2 CLR
02:32 26.2 °F 23.2 °F 30.20 in Calm     88% 0.00 in 0.0 W/m2 CLR
02:37 26.1 °F 23.5 °F 30.20 in Calm     90% 0.00 in 0.0 W/m2 CLR
02:42 26.1 °F 23.5 °F 30.20 in Calm     90% 0.00 in 0.0 W/m2 CLR
02:47 26.1 °F 23.5 °F 30.22 in Calm     90% 0.00 in 0.0 W/m2 CLR
02:52 26.1 °F 23.5 °F 30.20 in Calm     90% 0.00 in 0.0 W/m2 CLR
02:57 26.1 °F 23.8 °F 30.21 in Calm     91% 0.00 in 0.0 W/m2 CLR
03:02 26.1 °F 23.8 °F 30.21 in Calm     91% 0.00 in 0.0 W/m2 CLR
03:07 26.1 °F 23.5 °F 30.20 in Calm     90% 0.00 in 0.0 W/m2 CLR
03:12 26.1 °F 23.0 °F 30.21 in Calm     88% 0.00 in 0.0 W/m2 CLR
03:17 26.1 °F 23.0 °F 30.21 in Calm     88% 0.00 in 0.0 W/m2 CLR
03:22 26.1 °F 23.0 °F 30.21 in Calm     88% 0.00 in 0.0 W/m2 CLR
03:27 26.1 °F 23.0 °F 30.21 in Calm     88% 0.00 in 0.0 W/m2 CLR
03:32 25.9 °F 22.3 °F 30.21 in Calm     86% 0.00 in 0.0 W/m2 CLR
03:37 25.3 °F 22.8 °F 30.21 in Calm     90% 0.00 in 0.0 W/m2 CLR
03:42 25.3 °F 22.3 °F 30.20 in Calm     88% 0.00 in 0.0 W/m2 CLR
03:47 25.3 °F 22.3 °F 30.21 in Calm     88% 0.00 in 0.0 W/m2 CLR
03:52 25.2 °F 22.1 °F 30.21 in Calm     88% 0.00 in 0.0 W/m2 CLR
03:57 25.2 °F 22.9 °F 30.21 in Calm     91% 0.00 in 0.0 W/m2 CLR
04:02 25.2 °F 22.9 °F 30.21 in Calm     91% 0.00 in 0.0 W/m2 CLR
04:07 25.0 °F 22.5 °F 30.21 in Calm     90% 0.00 in 0.0 W/m2 CLR
04:12 24.8 °F 22.3 °F 30.21 in Calm     90% 0.00 in 0.0 W/m2 CLR
04:17 24.4 °F 22.7 °F 30.21 in Calm     93% 0.00 in 0.0 W/m2 CLR
04:22 24.4 °F 22.7 °F 30.22 in Calm     93% 0.00 in 0.0 W/m2 CLR
04:27 24.4 °F 22.7 °F 30.22 in Calm     93% 0.00 in 0.0 W/m2 CLR
04:32 24.6 °F 22.9 °F 30.22 in Calm     93% 0.00 in 0.0 W/m2 CLR
04:37 24.6 °F 22.9 °F 30.22 in Calm     93% 0.00 in 0.0 W/m2 CLR
04:42 24.6 °F 22.9 °F 30.22 in Calm     93% 0.00 in 0.0 W/m2 CLR
04:47 25.2 °F 22.9 °F 30.22 in Calm     91% 0.00 in 0.0 W/m2 CLR
04:52 24.8 °F 22.5 °F 30.22 in Calm     91% 0.00 in 0.0 W/m2 CLR
04:57 24.4 °F 22.2 °F 30.22 in Calm     91% 0.00 in 0.0 W/m2 CLR
05:03 24.4 °F 22.2 °F 30.22 in Calm     91% 0.00 in 0.0 W/m2 CLR
05:08 24.4 °F 22.2 °F 30.22 in Calm     91% 0.00 in 0.0 W/m2 CLR
05:13 24.3 °F 22.5 °F 30.22 in Calm     93% 0.00 in 0.0 W/m2 CLR
05:18 24.4 °F 22.7 °F 30.23 in Calm     93% 0.00 in 0.0 W/m2 CLR
05:23 24.6 °F 22.4 °F 30.23 in Calm     91% 0.00 in 0.0 W/m2 CLR
05:28 24.8 °F 22.5 °F 30.23 in Calm     91% 0.00 in 0.0 W/m2 CLR
05:33 24.4 °F 22.2 °F 30.23 in Calm     91% 0.00 in 0.0 W/m2 CLR
05:38 24.1 °F 22.4 °F 30.23 in Calm     93% 0.00 in 0.0 W/m2 CLR
05:43 24.1 °F 22.4 °F 30.24 in Calm     93% 0.00 in 0.0 W/m2 CLR
05:48 23.7 °F 22.5 °F 30.25 in Calm     95% 0.00 in 0.0 W/m2 CLR
05:53 23.7 °F 22.5 °F 30.25 in Calm     95% 0.00 in 103.7 W/m2 CLR
05:58 23.7 °F 22.5 °F 30.25 in Calm     95% 0.00 in 134.0 W/m2 CLR
06:03 23.7 °F 22.5 °F 30.25 in Calm     95% 0.00 in 145.1 W/m2 CLR
06:08 23.7 °F 22.5 °F 30.25 in Calm     95% 0.00 in 8.0 W/m2 CLR
06:13 23.7 °F 22.5 °F 30.25 in Calm     95% 0.00 in 16.0 W/m2 CLR
06:18 24.1 °F 22.9 °F 30.26 in Calm     95% 0.00 in 25.0 W/m2 CLR
06:23 24.1 °F 22.9 °F 30.25 in Calm     95% 0.00 in 35.0 W/m2 CLR
06:28 24.1 °F 22.9 °F 30.25 in Calm     95% 0.00 in 45.0 W/m2 CLR
06:33 24.4 °F 23.2 °F 30.26 in Calm     95% 0.00 in 56.0 W/m2 CLR
06:38 24.6 °F 22.9 °F 30.26 in Calm     93% 0.00 in 68.0 W/m2 CLR
06:43 25.7 °F 24.0 °F 30.26 in Calm     93% 0.00 in 80.0 W/m2 CLR
06:48 25.7 °F 24.0 °F 30.26 in Calm     93% 0.00 in 93.0 W/m2 CLR
06:53 25.9 °F 24.1 °F 30.26 in Calm     93% 0.00 in 106.0 W/m2 CLR
06:58 26.1 °F 24.3 °F 30.27 in Calm     93% 0.00 in 120.0 W/m2 CLR
07:03 26.2 °F 24.0 °F 30.27 in Calm     91% 0.00 in 134.0 W/m2 CLR
07:08 26.8 °F 24.5 °F 30.27 in Calm     91% 0.00 in 148.0 W/m2 CLR
07:13 27.5 °F 25.2 °F 30.27 in Calm     91% 0.00 in 227.9 W/m2 CLR
07:18 27.9 °F 25.3 °F 30.27 in Calm     90% 0.00 in 236.0 W/m2 CLR
07:23 30.0 °F 26.3 °F 30.27 in Calm     86% 0.00 in 245.1 W/m2 CLR
07:28 31.6 °F 27.6 °F 30.27 in Calm     85% 0.00 in 273.4 W/m2 CLR
07:33 32.4 °F 27.8 °F 30.27 in Calm     83% 0.00 in 280.5 W/m2 CLR
07:38 34.0 °F 28.2 °F 30.28 in Calm     79% 0.00 in 282.5 W/m2 CLR
07:43 35.4 °F 28.3 °F 30.27 in Calm     75% 0.00 in 272.4 W/m2 CLR
07:48 37.8 °F 29.2 °F 30.27 in Calm     71% 0.00 in 276.4 W/m2 CLR
07:53 38.7 °F 29.7 °F 30.27 in Calm     70% 0.00 in 261.3 W/m2 CLR
07:58 39.4 °F 30.4 °F 30.27 in Calm     70% 0.00 in 261.3 W/m2 CLR
08:03 40.6 °F 30.9 °F 30.27 in Calm     68% 0.00 in 302.7 W/m2 CLR
08:08 43.2 °F 30.6 °F 30.27 in Calm     61% 0.00 in 323.9 W/m2 CLR
08:13 45.0 °F 29.8 °F 30.27 in Calm     55% 0.00 in 323.9 W/m2 CLR
08:18 45.9 °F 29.7 °F 30.27 in Calm     53% 0.00 in 336.0 W/m2 CLR
08:23 48.6 °F 28.2 °F 30.27 in Calm     45% 0.00 in 349.2 W/m2 CLR
08:28 48.9 °F 28.5 °F 30.27 in Calm     45% 0.00 in 349.2 W/m2 CLR
08:33 50.2 °F 29.6 °F 30.27 in Calm     45% 0.00 in 390.6 W/m2 CLR
08:38 50.9 °F 29.7 °F 30.27 in Calm     44% 0.00 in 481.5 W/m2 CLR
08:43 53.1 °F 29.4 °F 30.27 in Calm     40% 0.00 in 445.0 W/m2 CLR
08:48 52.0 °F 29.0 °F 30.27 in Calm     41% 0.00 in 779.4 W/m2 CLR
08:53 54.0 °F 30.2 °F 30.26 in Calm     40% 0.00 in 779.4 W/m2 CLR
08:58 54.0 °F 30.2 °F 30.27 in East 2.3 mph 2.3 mph 40% 0.00 in 815.8 W/m2 CLR
09:03 53.8 °F 30.0 °F 30.27 in ESE 2.3 mph 2.3 mph 40% 0.00 in 822.8 W/m2 CLR
09:08 53.1 °F 31.7 °F 30.27 in SE 2.3 mph   44% 0.00 in 820.8 W/m2 CLR
09:13 54.0 °F 30.8 °F 30.27 in SE 1.2 mph 1.2 mph 41% 0.00 in 829.9 W/m2 CLR
Juneau County Weather
Compliments of Weather Underground - 4.75 mb